sensor_id;sensor_type;location;lat;lon;timestamp;temperature;humidity
31084;DHT22;36333;51.382;0.016;2022-08-01T00:00:08;19.20;96.90
31084;DHT22;36333;51.382;0.016;2022-08-01T00:02:37;19.30;96.90
31084;DHT22;36333;51.382;0.016;2022-08-01T00:05:06;19.30;96.80
31084;DHT22;36333;51.382;0.016;2022-08-01T00:07:35;19.30;96.70
31084;DHT22;36333;51.382;0.016;2022-08-01T00:10:11;19.40;96.80
31084;DHT22;36333;51.382;0.016;2022-08-01T00:12:39;19.40;96.70
31084;DHT22;36333;51.382;0.016;2022-08-01T00:15:09;19.40;96.70
31084;DHT22;36333;51.382;0.016;2022-08-01T00:17:37;19.30;96.70
31084;DHT22;36333;51.382;0.016;2022-08-01T00:20:07;19.30;96.70
31084;DHT22;36333;51.382;0.016;2022-08-01T00:22:35;19.30;96.80
31084;DHT22;36333;51.382;0.016;2022-08-01T00:25:04;19.20;96.80
31084;DHT22;36333;51.382;0.016;2022-08-01T00:27:32;19.10;97.00
31084;DHT22;36333;51.382;0.016;2022-08-01T00:30:05;19.00;97.20
31084;DHT22;36333;51.382;0.016;2022-08-01T00:32:44;18.90;97.30
31084;DHT22;36333;51.382;0.016;2022-08-01T00:35:11;18.80;97.50
31084;DHT22;36333;51.382;0.016;2022-08-01T00:37:40;18.60;97.70
31084;DHT22;36333;51.382;0.016;2022-08-01T00:40:08;18.60;98.00
31084;DHT22;36333;51.382;0.016;2022-08-01T00:42:36;18.50;98.20
31084;DHT22;36333;51.382;0.016;2022-08-01T00:45:10;18.40;98.40
31084;DHT22;36333;51.382;0.016;2022-08-01T00:47:39;18.30;98.60
31084;DHT22;36333;51.382;0.016;2022-08-01T00:50:07;18.30;98.90
31084;DHT22;36333;51.382;0.016;2022-08-01T00:52:36;18.20;99.10
31084;DHT22;36333;51.382;0.016;2022-08-01T00:55:04;18.10;99.30
31084;DHT22;36333;51.382;0.016;2022-08-01T00:57:32;18.10;99.70
31084;DHT22;36333;51.382;0.016;2022-08-01T01:00:20;18.00;99.80
31084;DHT22;36333;51.382;0.016;2022-08-01T01:02:53;17.90;99.90
31084;DHT22;36333;51.382;0.016;2022-08-01T01:05:21;17.90;99.90
31084;DHT22;36333;51.382;0.016;2022-08-01T01:08:03;17.80;99.90
31084;DHT22;36333;51.382;0.016;2022-08-01T01:10:46;17.80;99.90
31084;DHT22;36333;51.382;0.016;2022-08-01T01:13:26;17.80;99.90
31084;DHT22;36333;51.382;0.016;2022-08-01T01:16:00;17.90;99.90
31084;DHT22;36333;51.382;0.016;2022-08-01T01:24:21;18.00;99.90
31084;DHT22;36333;51.382;0.016;2022-08-01T01:27:12;18.10;99.90
31084;DHT22;36333;51.382;0.016;2022-08-01T01:29:51;18.20;99.90
31084;DHT22;36333;51.382;0.016;2022-08-01T01:32:41;18.20;99.90
31084;DHT22;36333;51.382;0.016;2022-08-01T01:35:16;18.30;99.90
31084;DHT22;36333;51.382;0.016;2022-08-01T01:37:47;18.30;99.90
31084;DHT22;36333;51.382;0.016;2022-08-01T01:40:17;18.40;99.90
31084;DHT22;36333;51.382;0.016;2022-08-01T01:42:47;18.50;99.90
31084;DHT22;36333;51.382;0.016;2022-08-01T01:45:16;18.50;99.90
31084;DHT22;36333;51.382;0.016;2022-08-01T01:47:45;18.50;99.90
31084;DHT22;36333;51.382;0.016;2022-08-01T01:50:13;18.60;99.80
31084;DHT22;36333;51.382;0.016;2022-08-01T01:52:41;18.60;99.70
31084;DHT22;36333;51.382;0.016;2022-08-01T01:55:10;18.60;99.50
31084;DHT22;36333;51.382;0.016;2022-08-01T01:57:43;18.60;99.30
31084;DHT22;36333;51.382;0.016;2022-08-01T02:00:12;18.60;99.30
31084;DHT22;36333;51.382;0.016;2022-08-01T02:02:41;18.60;99.20
31084;DHT22;36333;51.382;0.016;2022-08-01T02:05:12;18.60;99.20
31084;DHT22;36333;51.382;0.016;2022-08-01T02:07:40;18.60;99.20
31084;DHT22;36333;51.382;0.016;2022-08-01T02:10:10;18.60;99.20
31084;DHT22;36333;51.382;0.016;2022-08-01T02:12:41;18.50;99.20
31084;DHT22;36333;51.382;0.016;2022-08-01T02:15:11;18.50;99.20
31084;DHT22;36333;51.382;0.016;2022-08-01T02:17:44;18.40;99.20
31084;DHT22;36333;51.382;0.016;2022-08-01T02:20:13;18.40;99.20
31084;DHT22;36333;51.382;0.016;2022-08-01T02:22:44;18.30;99.20
31084;DHT22;36333;51.382;0.016;2022-08-01T02:25:31;18.20;99.30
31084;DHT22;36333;51.382;0.016;2022-08-01T02:28:07;18.10;99.50
31084;DHT22;36333;51.382;0.016;2022-08-01T02:30:37;18.10;99.40
31084;DHT22;36333;51.382;0.016;2022-08-01T02:33:12;18.00;99.70
31084;DHT22;36333;51.382;0.016;2022-08-01T02:35:46;17.90;99.60
31084;DHT22;36333;51.382;0.016;2022-08-01T02:38:37;17.80;99.70
31084;DHT22;36333;51.382;0.016;2022-08-01T02:41:11;17.60;99.90
31084;DHT22;36333;51.382;0.016;2022-08-01T02:43:45;17.50;99.90
31084;DHT22;36333;51.382;0.016;2022-08-01T02:46:36;17.40;99.90
31084;DHT22;36333;51.382;0.016;2022-08-01T02:49:07;17.30;99.90
31084;DHT22;36333;51.382;0.016;2022-08-01T02:51:37;17.20;99.90
31084;DHT22;36333;51.382;0.016;2022-08-01T02:54:08;17.20;99.90
31084;DHT22;36333;51.382;0.016;2022-08-01T02:56:38;17.00;99.90
31084;DHT22;36333;51.382;0.016;2022-08-01T02:59:12;17.00;99.90
31084;DHT22;36333;51.382;0.016;2022-08-01T03:01:43;16.90;99.90
31084;DHT22;36333;51.382;0.016;2022-08-01T03:04:13;16.80;99.90
31084;DHT22;36333;51.382;0.016;2022-08-01T03:06:42;16.70;99.90
31084;DHT22;36333;51.382;0.016;2022-08-01T03:09:12;16.70;99.90
31084;DHT22;36333;51.382;0.016;2022-08-01T03:11:45;16.70;99.90
31084;DHT22;36333;51.382;0.016;2022-08-01T03:14:14;16.60;99.90
31084;DHT22;36333;51.382;0.016;2022-08-01T03:16:44;16.60;99.90
31084;DHT22;36333;51.382;0.016;2022-08-01T03:19:13;16.60;99.90
31084;DHT22;36333;51.382;0.016;2022-08-01T03:21:43;16.60;99.90
31084;DHT22;36333;51.382;0.016;2022-08-01T03:24:11;16.60;99.90
31084;DHT22;36333;51.382;0.016;2022-08-01T03:26:41;16.60;99.90
31084;DHT22;36333;51.382;0.016;2022-08-01T03:29:14;16.70;99.90
31084;DHT22;36333;51.382;0.016;2022-08-01T03:31:45;16.70;99.90
31084;DHT22;36333;51.382;0.016;2022-08-01T03:34:13;16.70;99.90
31084;DHT22;36333;51.382;0.016;2022-08-01T03:36:52;16.70;99.90
31084;DHT22;36333;51.382;0.016;2022-08-01T03:39:27;16.70;99.90
31084;DHT22;36333;51.382;0.016;2022-08-01T03:41:59;16.70;99.90
31084;DHT22;36333;51.382;0.016;2022-08-01T03:44:31;16.70;99.90
31084;DHT22;36333;51.382;0.016;2022-08-01T03:47:02;16.60;99.90
31084;DHT22;36333;51.382;0.016;2022-08-01T03:49:33;16.60;99.90
31084;DHT22;36333;51.382;0.016;2022-08-01T03:52:04;16.50;99.90
31084;DHT22;36333;51.382;0.016;2022-08-01T03:54:43;16.40;99.90
31084;DHT22;36333;51.382;0.016;2022-08-01T03:57:14;16.30;99.90
31084;DHT22;36333;51.382;0.016;2022-08-01T04:00:05;16.30;99.90
31084;DHT22;36333;51.382;0.016;2022-08-01T04:02:40;16.30;99.90
31084;DHT22;36333;51.382;0.016;2022-08-01T04:05:09;16.20;99.90
31084;DHT22;36333;51.382;0.016;2022-08-01T04:07:37;16.20;99.90
31084;DHT22;36333;51.382;0.016;2022-08-01T04:10:07;16.30;99.90
31084;DHT22;36333;51.382;0.016;2022-08-01T04:12:35;16.40;99.90
31084;DHT22;36333;51.382;0.016;2022-08-01T04:15:04;16.50;99.90
31084;DHT22;36333;51.382;0.016;2022-08-01T04:17:32;16.60;99.90
31084;DHT22;36333;51.382;0.016;2022-08-01T04:20:00;16.60;99.90
31084;DHT22;36333;51.382;0.016;2022-08-01T04:22:27;16.70;99.90
31084;DHT22;36333;51.382;0.016;2022-08-01T04:24:56;16.80;99.90
31084;DHT22;36333;51.382;0.016;2022-08-01T04:27:29;16.90;99.90
31084;DHT22;36333;51.382;0.016;2022-08-01T04:30:28;16.90;99.90
31084;DHT22;36333;51.382;0.016;2022-08-01T04:33:00;17.00;99.90
31084;DHT22;36333;51.382;0.016;2022-08-01T04:35:29;17.00;99.90
31084;DHT22;36333;51.382;0.016;2022-08-01T04:38:22;17.00;99.90
31084;DHT22;36333;51.382;0.016;2022-08-01T04:40:52;17.00;99.90
31084;DHT22;36333;51.382;0.016;2022-08-01T04:43:20;15.50;99.90
31084;DHT22;36333;51.382;0.016;2022-08-01T04:45:50;16.80;99.90
31084;DHT22;36333;51.382;0.016;2022-08-01T04:48:19;16.80;99.90
31084;DHT22;36333;51.382;0.016;2022-08-01T04:50:49;16.80;99.90
31084;DHT22;36333;51.382;0.016;2022-08-01T04:53:19;16.70;99.90
31084;DHT22;36333;51.382;0.016;2022-08-01T04:55:49;16.70;99.90
31084;DHT22;36333;51.382;0.016;2022-08-01T04:58:17;16.70;99.90
31084;DHT22;36333;51.382;0.016;2022-08-01T05:00:46;16.80;99.90
31084;DHT22;36333;51.382;0.016;2022-08-01T05:03:15;16.80;99.90
31084;DHT22;36333;51.382;0.016;2022-08-01T05:05:43;17.50;99.90
31084;DHT22;36333;51.382;0.016;2022-08-01T05:08:13;16.80;99.90
31084;DHT22;36333;51.382;0.016;2022-08-01T05:10:41;16.70;99.90
31084;DHT22;36333;51.382;0.016;2022-08-01T05:13:09;16.70;99.90
31084;DHT22;36333;51.382;0.016;2022-08-01T05:15:37;16.70;99.90
31084;DHT22;36333;51.382;0.016;2022-08-01T05:18:05;16.70;99.90
31084;DHT22;36333;51.382;0.016;2022-08-01T05:20:35;16.80;99.90
31084;DHT22;36333;51.382;0.016;2022-08-01T05:23:05;16.90;99.90
31084;DHT22;36333;51.382;0.016;2022-08-01T05:25:37;17.00;99.90
31084;DHT22;36333;51.382;0.016;2022-08-01T05:28:25;17.10;99.90
31084;DHT22;36333;51.382;0.016;2022-08-01T05:30:53;17.30;99.90
31084;DHT22;36333;51.382;0.016;2022-08-01T05:33:22;17.40;99.90
31084;DHT22;36333;51.382;0.016;2022-08-01T05:35:50;17.50;99.90
31084;DHT22;36333;51.382;0.016;2022-08-01T05:38:17;17.60;99.90
31084;DHT22;36333;51.382;0.016;2022-08-01T05:40:45;17.60;99.90
31084;DHT22;36333;51.382;0.016;2022-08-01T05:43:13;17.70;99.90
31084;DHT22;36333;51.382;0.016;2022-08-01T05:45:40;19.40;99.90
31084;DHT22;36333;51.382;0.016;2022-08-01T05:48:11;17.80;99.90
31084;DHT22;36333;51.382;0.016;2022-08-01T05:50:39;18.10;99.90
31084;DHT22;36333;51.382;0.016;2022-08-01T05:53:07;17.90;99.90
31084;DHT22;36333;51.382;0.016;2022-08-01T05:55:35;18.10;99.90
31084;DHT22;36333;51.382;0.016;2022-08-01T05:58:03;18.20;99.90
31084;DHT22;36333;51.382;0.016;2022-08-01T06:00:31;18.30;99.90
31084;DHT22;36333;51.382;0.016;2022-08-01T06:02:58;18.40;99.90
31084;DHT22;36333;51.382;0.016;2022-08-01T06:05:40;18.40;99.90
31084;DHT22;36333;51.382;0.016;2022-08-01T06:08:08;18.60;99.90
31084;DHT22;36333;51.382;0.016;2022-08-01T06:10:36;18.70;99.90
31084;DHT22;36333;51.382;0.016;2022-08-01T06:13:03;18.90;99.90
31084;DHT22;36333;51.382;0.016;2022-08-01T06:15:32;19.00;99.90
31084;DHT22;36333;51.382;0.016;2022-08-01T06:18:02;19.10;99.90
31084;DHT22;36333;51.382;0.016;2022-08-01T06:20:34;19.30;99.90
31084;DHT22;36333;51.382;0.016;2022-08-01T06:23:02;19.30;99.90
31084;DHT22;36333;51.382;0.016;2022-08-01T06:25:53;19.70;99.90
31084;DHT22;36333;51.382;0.016;2022-08-01T06:28:22;19.90;98.90
31084;DHT22;36333;51.382;0.016;2022-08-01T06:30:50;20.00;98.90
31084;DHT22;36333;51.382;0.016;2022-08-01T06:33:18;20.10;98.60
31084;DHT22;36333;51.382;0.016;2022-08-01T06:35:45;20.10;98.30
31084;DHT22;36333;51.382;0.016;2022-08-01T06:38:13;20.10;98.00
31084;DHT22;36333;51.382;0.016;2022-08-01T06:40:41;20.10;98.00
31084;DHT22;36333;51.382;0.016;2022-08-01T06:43:09;20.10;97.90
31084;DHT22;36333;51.382;0.016;2022-08-01T06:45:42;20.00;97.90
31084;DHT22;36333;51.382;0.016;2022-08-01T06:48:09;20.00;97.90
31084;DHT22;36333;51.382;0.016;2022-08-01T06:50:37;20.00;97.90
31084;DHT22;36333;51.382;0.016;2022-08-01T06:53:06;20.00;98.00
31084;DHT22;36333;51.382;0.016;2022-08-01T06:55:36;20.00;97.80
31084;DHT22;36333;51.382;0.016;2022-08-01T06:58:07;20.00;98.00
31084;DHT22;36333;51.382;0.016;2022-08-01T07:00:36;20.10;97.90
31084;DHT22;36333;51.382;0.016;2022-08-01T07:03:04;20.20;97.60
31084;DHT22;36333;51.382;0.016;2022-08-01T07:05:34;20.30;97.50
31084;DHT22;36333;51.382;0.016;2022-08-01T07:08:02;20.30;97.40
31084;DHT22;36333;51.382;0.016;2022-08-01T07:10:32;20.30;97.10
31084;DHT22;36333;51.382;0.016;2022-08-01T07:13:02;20.30;97.00
31084;DHT22;36333;51.382;0.016;2022-08-01T07:15:42;20.30;97.00
31084;DHT22;36333;51.382;0.016;2022-08-01T07:18:10;20.40;97.00
31084;DHT22;36333;51.382;0.016;2022-08-01T07:20:38;20.40;97.00
31084;DHT22;36333;51.382;0.016;2022-08-01T07:23:19;20.40;96.70
31084;DHT22;36333;51.382;0.016;2022-08-01T07:25:56;20.50;96.80
31084;DHT22;36333;51.382;0.016;2022-08-01T07:28:28;20.60;96.50
31084;DHT22;36333;51.382;0.016;2022-08-01T07:30:56;20.70;96.30
31084;DHT22;36333;51.382;0.016;2022-08-01T07:33:24;20.80;96.20
31084;DHT22;36333;51.382;0.016;2022-08-01T07:35:52;20.90;95.90
31084;DHT22;36333;51.382;0.016;2022-08-01T07:38:20;21.10;95.70
31084;DHT22;36333;51.382;0.016;2022-08-01T07:40:48;21.20;95.40
31084;DHT22;36333;51.382;0.016;2022-08-01T07:43:16;21.30;95.40
31084;DHT22;36333;51.382;0.016;2022-08-01T07:45:43;21.40;94.90
31084;DHT22;36333;51.382;0.016;2022-08-01T07:48:13;21.40;94.70
31084;DHT22;36333;51.382;0.016;2022-08-01T07:50:40;21.50;94.50
31084;DHT22;36333;51.382;0.016;2022-08-01T07:53:08;21.50;94.30
31084;DHT22;36333;51.382;0.016;2022-08-01T07:55:37;21.50;94.10
31084;DHT22;36333;51.382;0.016;2022-08-01T07:58:06;21.60;94.10
31084;DHT22;36333;51.382;0.016;2022-08-01T08:00:34;21.70;93.90
31084;DHT22;36333;51.382;0.016;2022-08-01T08:03:05;21.80;93.60
31084;DHT22;36333;51.382;0.016;2022-08-01T08:05:33;21.30;93.40
31084;DHT22;36333;51.382;0.016;2022-08-01T08:08:25;22.00;92.80
31084;DHT22;36333;51.382;0.016;2022-08-01T08:10:53;22.10;93.00
31084;DHT22;36333;51.382;0.016;2022-08-01T08:13:21;22.20;92.80
31084;DHT22;36333;51.382;0.016;2022-08-01T08:15:49;22.30;92.50
31084;DHT22;36333;51.382;0.016;2022-08-01T08:18:16;22.30;92.20
31084;DHT22;36333;51.382;0.016;2022-08-01T08:20:47;22.30;92.20
31084;DHT22;36333;51.382;0.016;2022-08-01T08:23:16;22.30;92.20
31084;DHT22;36333;51.382;0.016;2022-08-01T08:26:13;22.30;92.00
31084;DHT22;36333;51.382;0.016;2022-08-01T08:28:42;22.50;91.80
31084;DHT22;36333;51.382;0.016;2022-08-01T08:31:10;22.60;91.60
31084;DHT22;36333;51.382;0.016;2022-08-01T08:33:57;22.70;91.30
31084;DHT22;36333;51.382;0.016;2022-08-01T08:36:25;22.80;90.50
31084;DHT22;36333;51.382;0.016;2022-08-01T08:38:58;22.80;91.10
31084;DHT22;36333;51.382;0.016;2022-08-01T08:41:31;22.90;90.90
31084;DHT22;36333;51.382;0.016;2022-08-01T08:44:06;22.90;90.80
31084;DHT22;36333;51.382;0.016;2022-08-01T08:46:45;22.90;90.60
31084;DHT22;36333;51.382;0.016;2022-08-01T08:49:22;22.90;90.40
31084;DHT22;36333;51.382;0.016;2022-08-01T08:51:51;22.90;90.40
31084;DHT22;36333;51.382;0.016;2022-08-01T08:54:22;22.90;90.30
31084;DHT22;36333;51.382;0.016;2022-08-01T08:56:59;22.90;90.10
31084;DHT22;36333;51.382;0.016;2022-08-01T08:59:27;23.00;90.10
31084;DHT22;36333;51.382;0.016;2022-08-01T09:01:56;23.10;90.10
31084;DHT22;36333;51.382;0.016;2022-08-01T09:04:26;23.10;90.00
31084;DHT22;36333;51.382;0.016;2022-08-01T09:06:54;23.10;89.70
31084;DHT22;36333;51.382;0.016;2022-08-01T09:09:26;23.20;89.80
31084;DHT22;36333;51.382;0.016;2022-08-01T09:11:54;23.20;89.50
31084;DHT22;36333;51.382;0.016;2022-08-01T09:14:25;23.40;89.40
31084;DHT22;36333;51.382;0.016;2022-08-01T09:17:07;23.60;88.70
31084;DHT22;36333;51.382;0.016;2022-08-01T09:19:42;24.00;88.10
31084;DHT22;36333;51.382;0.016;2022-08-01T09:22:13;24.20;86.90
31084;DHT22;36333;51.382;0.016;2022-08-01T09:24:41;24.50;86.30
31084;DHT22;36333;51.382;0.016;2022-08-01T09:27:16;24.60;85.50
31084;DHT22;36333;51.382;0.016;2022-08-01T09:29:48;24.70;83.60
31084;DHT22;36333;51.382;0.016;2022-08-01T09:32:29;24.70;85.30
31084;DHT22;36333;51.382;0.016;2022-08-01T09:35:22;24.60;84.90
31084;DHT22;36333;51.382;0.016;2022-08-01T09:38:24;24.60;83.60
31084;DHT22;36333;51.382;0.016;2022-08-01T09:41:00;24.60;82.80
31084;DHT22;36333;51.382;0.016;2022-08-01T09:43:30;24.60;83.30
31084;DHT22;36333;51.382;0.016;2022-08-01T09:46:05;24.50;83.60
31084;DHT22;36333;51.382;0.016;2022-08-01T09:51:36;24.50;82.80
31084;DHT22;36333;51.382;0.016;2022-08-01T09:54:32;24.60;83.60
31084;DHT22;36333;51.382;0.016;2022-08-01T09:57:15;24.80;82.70
31084;DHT22;36333;51.382;0.016;2022-08-01T09:59:49;25.00;80.70
31084;DHT22;36333;51.382;0.016;2022-08-01T10:02:37;25.00;81.80
31084;DHT22;36333;51.382;0.016;2022-08-01T10:05:07;25.10;81.50
31084;DHT22;36333;51.382;0.016;2022-08-01T10:07:54;25.20;81.50
31084;DHT22;36333;51.382;0.016;2022-08-01T10:10:24;25.20;81.20
31084;DHT22;36333;51.382;0.016;2022-08-01T10:13:00;25.10;80.80
31084;DHT22;36333;51.382;0.016;2022-08-01T10:15:30;25.10;80.80
31084;DHT22;36333;51.382;0.016;2022-08-01T10:18:06;25.20;80.90
31084;DHT22;36333;51.382;0.016;2022-08-01T10:20:53;25.30;80.40
31084;DHT22;36333;51.382;0.016;2022-08-01T10:23:47;25.30;79.50
31084;DHT22;36333;51.382;0.016;2022-08-01T10:26:19;25.50;78.90
31084;DHT22;36333;51.382;0.016;2022-08-01T10:28:54;25.60;78.80
31084;DHT22;36333;51.382;0.016;2022-08-01T10:31:22;25.70;78.40
31084;DHT22;36333;51.382;0.016;2022-08-01T10:33:57;25.70;78.50
31084;DHT22;36333;51.382;0.016;2022-08-01T10:36:26;25.60;78.40
31084;DHT22;36333;51.382;0.016;2022-08-01T10:38:55;25.50;78.10
31084;DHT22;36333;51.382;0.016;2022-08-01T10:41:24;25.50;78.50
31084;DHT22;36333;51.382;0.016;2022-08-01T10:43:54;25.40;78.50
31084;DHT22;36333;51.382;0.016;2022-08-01T10:46:22;25.40;78.40
31084;DHT22;36333;51.382;0.016;2022-08-01T10:51:21;25.40;77.40
31084;DHT22;36333;51.382;0.016;2022-08-01T10:54:10;25.60;76.90
31084;DHT22;36333;51.382;0.016;2022-08-01T10:56:50;25.80;75.50
31084;DHT22;36333;51.382;0.016;2022-08-01T10:59:23;25.90;74.40
31084;DHT22;36333;51.382;0.016;2022-08-01T11:02:28;25.90;74.30
31084;DHT22;36333;51.382;0.016;2022-08-01T11:05:17;26.00;74.00
31084;DHT22;36333;51.382;0.016;2022-08-01T11:07:54;25.90;73.30
31084;DHT22;36333;51.382;0.016;2022-08-01T11:10:27;26.00;74.10
31084;DHT22;36333;51.382;0.016;2022-08-01T11:13:01;26.10;74.30
31084;DHT22;36333;51.382;0.016;2022-08-01T11:15:33;26.20;73.80
31084;DHT22;36333;51.382;0.016;2022-08-01T11:18:04;26.30;73.30
31084;DHT22;36333;51.382;0.016;2022-08-01T11:21:01;26.30;72.40
31084;DHT22;36333;51.382;0.016;2022-08-01T11:23:50;26.40;72.50
31084;DHT22;36333;51.382;0.016;2022-08-01T11:26:21;26.70;72.70
31084;DHT22;36333;51.382;0.016;2022-08-01T11:29:14;26.80;72.50
31084;DHT22;36333;51.382;0.016;2022-08-01T11:31:50;26.80;69.90
31084;DHT22;36333;51.382;0.016;2022-08-01T11:34:19;26.80;71.70
31084;DHT22;36333;51.382;0.016;2022-08-01T11:37:25;26.80;71.80
31084;DHT22;36333;51.382;0.016;2022-08-01T11:40:25;26.90;70.50
31084;DHT22;36333;51.382;0.016;2022-08-01T11:45:53;27.00;70.40
31084;DHT22;36333;51.382;0.016;2022-08-01T11:48:27;27.10;70.40
31084;DHT22;36333;51.382;0.016;2022-08-01T11:50:57;27.10;70.70
31084;DHT22;36333;51.382;0.016;2022-08-01T11:53:29;27.10;70.50
31084;DHT22;36333;51.382;0.016;2022-08-01T11:55:58;27.10;70.60
31084;DHT22;36333;51.382;0.016;2022-08-01T11:58:26;27.20;70.50
31084;DHT22;36333;51.382;0.016;2022-08-01T12:00:58;27.40;70.20
31084;DHT22;36333;51.382;0.016;2022-08-01T12:03:30;27.50;70.10
31084;DHT22;36333;51.382;0.016;2022-08-01T12:06:00;27.50;70.00
31084;DHT22;36333;51.382;0.016;2022-08-01T12:08:29;27.40;69.80
31084;DHT22;36333;51.382;0.016;2022-08-01T12:10:59;28.30;69.50
31084;DHT22;36333;51.382;0.016;2022-08-01T12:13:42;27.40;70.30
31084;DHT22;36333;51.382;0.016;2022-08-01T12:16:11;27.50;69.10
31084;DHT22;36333;51.382;0.016;2022-08-01T12:18:40;27.70;69.70
31084;DHT22;36333;51.382;0.016;2022-08-01T12:21:08;27.90;69.50
31084;DHT22;36333;51.382;0.016;2022-08-01T12:23:36;27.90;69.20
31084;DHT22;36333;51.382;0.016;2022-08-01T12:26:04;27.80;69.20
31084;DHT22;36333;51.382;0.016;2022-08-01T12:28:39;28.00;69.40
31084;DHT22;36333;51.382;0.016;2022-08-01T12:31:07;28.00;68.60
31084;DHT22;36333;51.382;0.016;2022-08-01T12:33:39;28.00;69.30
31084;DHT22;36333;51.382;0.016;2022-08-01T12:36:06;29.60;70.30
31084;DHT22;36333;51.382;0.016;2022-08-01T12:38:40;28.00;69.30
31084;DHT22;36333;51.382;0.016;2022-08-01T12:41:10;28.00;69.00
31084;DHT22;36333;51.382;0.016;2022-08-01T12:43:38;28.00;69.00
31084;DHT22;36333;51.382;0.016;2022-08-01T12:46:06;27.90;69.20
31084;DHT22;36333;51.382;0.016;2022-08-01T12:48:36;27.80;69.30
31084;DHT22;36333;51.382;0.016;2022-08-01T12:51:06;27.80;69.40
31084;DHT22;36333;51.382;0.016;2022-08-01T12:53:36;27.80;69.30
31084;DHT22;36333;51.382;0.016;2022-08-01T12:56:08;27.60;69.40
31084;DHT22;36333;51.382;0.016;2022-08-01T12:58:38;27.70;69.70
31084;DHT22;36333;51.382;0.016;2022-08-01T13:01:08;27.80;69.70
31084;DHT22;36333;51.382;0.016;2022-08-01T13:03:36;28.00;69.40
31084;DHT22;36333;51.382;0.016;2022-08-01T13:06:12;28.30;69.20
31084;DHT22;36333;51.382;0.016;2022-08-01T13:08:43;28.40;68.30
31084;DHT22;36333;51.382;0.016;2022-08-01T13:11:12;28.30;68.70
31084;DHT22;36333;51.382;0.016;2022-08-01T13:13:47;28.30;68.70
31084;DHT22;36333;51.382;0.016;2022-08-01T13:16:23;28.10;68.40
31084;DHT22;36333;51.382;0.016;2022-08-01T13:19:05;27.80;68.50
31084;DHT22;36333;51.382;0.016;2022-08-01T13:21:34;27.40;69.30
31084;DHT22;36333;51.382;0.016;2022-08-01T13:24:28;27.20;70.00
31084;DHT22;36333;51.382;0.016;2022-08-01T13:26:59;27.30;69.80
31084;DHT22;36333;51.382;0.016;2022-08-01T13:29:36;27.50;69.90
31084;DHT22;36333;51.382;0.016;2022-08-01T13:32:15;27.60;69.80
31084;DHT22;36333;51.382;0.016;2022-08-01T13:35:07;27.80;69.50
31084;DHT22;36333;51.382;0.016;2022-08-01T13:37:36;27.90;68.70
31084;DHT22;36333;51.382;0.016;2022-08-01T13:40:06;28.00;69.00
31084;DHT22;36333;51.382;0.016;2022-08-01T13:42:42;28.00;68.80
31084;DHT22;36333;51.382;0.016;2022-08-01T13:45:10;27.90;68.90
31084;DHT22;36333;51.382;0.016;2022-08-01T13:47:42;28.20;69.30
31084;DHT22;36333;51.382;0.016;2022-08-01T13:50:31;28.20;69.30
31084;DHT22;36333;51.382;0.016;2022-08-01T13:52:59;29.10;68.50
31084;DHT22;36333;51.382;0.016;2022-08-01T13:55:26;30.10;66.90
31084;DHT22;36333;51.382;0.016;2022-08-01T13:58:11;31.10;64.40
31084;DHT22;36333;51.382;0.016;2022-08-01T14:00:39;32.10;63.60
31084;DHT22;36333;51.382;0.016;2022-08-01T14:03:08;32.50;62.80
31084;DHT22;36333;51.382;0.016;2022-08-01T14:05:37;32.10;62.20
31084;DHT22;36333;51.382;0.016;2022-08-01T14:08:06;31.70;62.70
31084;DHT22;36333;51.382;0.016;2022-08-01T14:10:34;31.60;63.00
31084;DHT22;36333;51.382;0.016;2022-08-01T14:13:01;31.90;62.50
31084;DHT22;36333;51.382;0.016;2022-08-01T14:15:32;32.40;61.80
31084;DHT22;36333;51.382;0.016;2022-08-01T14:18:08;32.40;60.70
31084;DHT22;36333;51.382;0.016;2022-08-01T14:20:38;32.20;60.30
31084;DHT22;36333;51.382;0.016;2022-08-01T14:23:06;32.50;60.80
31084;DHT22;36333;51.382;0.016;2022-08-01T14:25:39;32.80;60.20
31084;DHT22;36333;51.382;0.016;2022-08-01T14:28:26;33.50;59.10
31084;DHT22;36333;51.382;0.016;2022-08-01T14:30:56;34.40;58.60
31084;DHT22;36333;51.382;0.016;2022-08-01T14:33:24;35.20;56.80
31084;DHT22;36333;51.382;0.016;2022-08-01T14:35:52;35.90;56.00
31084;DHT22;36333;51.382;0.016;2022-08-01T14:38:40;36.40;55.30
31084;DHT22;36333;51.382;0.016;2022-08-01T14:41:07;36.80;54.50
31084;DHT22;36333;51.382;0.016;2022-08-01T14:43:35;36.50;54.30
31084;DHT22;36333;51.382;0.016;2022-08-01T14:46:02;35.90;53.40
31084;DHT22;36333;51.382;0.016;2022-08-01T14:48:31;35.60;53.70
31084;DHT22;36333;51.382;0.016;2022-08-01T14:50:59;35.00;55.70
31084;DHT22;36333;51.382;0.016;2022-08-01T14:53:30;34.40;56.20
31084;DHT22;36333;51.382;0.016;2022-08-01T14:56:03;34.30;56.50
31084;DHT22;36333;51.382;0.016;2022-08-01T14:58:31;34.50;56.10
31084;DHT22;36333;51.382;0.016;2022-08-01T15:01:00;34.50;55.40
31084;DHT22;36333;51.382;0.016;2022-08-01T15:03:31;34.70;55.40
31084;DHT22;36333;51.382;0.016;2022-08-01T15:05:59;34.70;55.50
31084;DHT22;36333;51.382;0.016;2022-08-01T15:08:32;34.80;55.60
31084;DHT22;36333;51.382;0.016;2022-08-01T15:11:00;35.10;55.10
31084;DHT22;36333;51.382;0.016;2022-08-01T15:13:34;35.10;55.40
31084;DHT22;36333;51.382;0.016;2022-08-01T15:16:18;35.20;55.20
31084;DHT22;36333;51.382;0.016;2022-08-01T15:19:00;34.90;55.50
31084;DHT22;36333;51.382;0.016;2022-08-01T15:21:28;34.90;55.10
31084;DHT22;36333;51.382;0.016;2022-08-01T15:24:08;34.90;54.80
31084;DHT22;36333;51.382;0.016;2022-08-01T15:26:36;34.90;55.40
31084;DHT22;36333;51.382;0.016;2022-08-01T15:29:06;34.30;55.70
31084;DHT22;36333;51.382;0.016;2022-08-01T15:31:37;33.60;56.30
31084;DHT22;36333;51.382;0.016;2022-08-01T15:34:05;33.00;57.00
31084;DHT22;36333;51.382;0.016;2022-08-01T15:36:36;32.60;57.90
31084;DHT22;36333;51.382;0.016;2022-08-01T15:39:13;32.40;58.20
31084;DHT22;36333;51.382;0.016;2022-08-01T15:41:42;32.10;58.40
31084;DHT22;36333;51.382;0.016;2022-08-01T15:44:10;32.10;58.60
31084;DHT22;36333;51.382;0.016;2022-08-01T15:46:38;32.10;58.90
31084;DHT22;36333;51.382;0.016;2022-08-01T15:49:06;32.20;58.70
31084;DHT22;36333;51.382;0.016;2022-08-01T15:51:34;32.50;59.00
31084;DHT22;36333;51.382;0.016;2022-08-01T15:54:04;32.50;59.20
31084;DHT22;36333;51.382;0.016;2022-08-01T15:56:40;32.00;59.40
31084;DHT22;36333;51.382;0.016;2022-08-01T15:59:08;32.10;60.50
31084;DHT22;36333;51.382;0.016;2022-08-01T16:01:36;32.80;60.10
31084;DHT22;36333;51.382;0.016;2022-08-01T16:04:07;33.80;58.90
31084;DHT22;36333;51.382;0.016;2022-08-01T16:06:35;34.60;58.10
31084;DHT22;36333;51.382;0.016;2022-08-01T16:09:06;34.90;56.50
31084;DHT22;36333;51.382;0.016;2022-08-01T16:11:36;34.90;55.80
31084;DHT22;36333;51.382;0.016;2022-08-01T16:14:09;34.40;56.60
31084;DHT22;36333;51.382;0.016;2022-08-01T16:16:37;34.70;56.70